Nar'yan-Mar, Russia
Current Conditions -  °F | °C
As of 3:30 AM on Tuesday 25 Nov 2014 (Local Time) from ULAA Reporting Station
Snow Showers Snow Showers  
Wind Chill: 27°   Ceiling: 1000
Heat Index: 34°   Visibility: 3mi
Dew Point: 32°   Wind: 9mph
Humidity: 93%   Direction: 270°W
Pressure: 30.27"   Gusts: NA
Location:  67.63°N, 53.03°E
Report Text: ULAA 250030Z 27004MPS 5000 -SHSN OVC010CB 01/00 Q1025 BECMG3000 SHSN BKN007CB RMK QFE767/1023 SC039
Loading
Personal Weather Stations






























Interactive Weather Map New forecast layout! Learn more

10-Day Weather Forecast

Advertisements
Track Severe Weather on mobile